Time;durP1;ratioP1;P1;durP2;ratioP2;P2;SDS_P1;SDS_P2;PMS_P1;PMS_P2;Temp;Humidity;BMP_temperature;BMP_pressure;BME280_temperature;BME280_humidity;BME280_pressure;Samples;Min_cycle;Max_cycle;Signal;HPM_P1;HPM_P2
2022/10/31 00:04:00;;;;;;;1999.90;999.90;;;13.00;99.90;;;;;;6735099;88;20209;-82
2022/10/31 00:14:01;;;;;;;1999.90;999.90;;;13.00;99.90;;;;;;6735340;88;20668;-81
2022/10/31 00:24:02;;;;;;;1999.90;999.90;;;12.90;99.90;;;;;;6735307;88;20221;-82
2022/10/31 00:34:03;;;;;;;1999.90;999.90;;;12.90;99.90;;;;;;6734207;88;20184;-81
2022/10/31 00:44:04;;;;;;;1999.90;999.90;;;12.90;99.90;;;;;;6735055;88;20185;-82
2022/10/31 00:54:04;;;;;;;1999.90;999.90;;;12.80;99.90;;;;;;6734917;88;20246;-82
2022/10/31 01:04:05;;;;;;;1999.90;999.90;;;12.80;99.90;;;;;;6731243;88;20205;-81
2022/10/31 01:14:05;;;;;;;1999.90;999.90;;;12.70;99.90;;;;;;6736163;88;20661;-82
2022/10/31 01:24:06;;;;;;;1999.90;999.90;;;12.60;99.90;;;;;;6734301;88;20185;-82
2022/10/31 01:34:07;;;;;;;1999.90;999.90;;;12.60;99.90;;;;;;6734074;88;20215;-81
2022/10/31 01:44:13;;;;;;;1999.90;999.90;;;12.60;99.90;;;;;;6739270;88;20185;-82
2022/10/31 01:54:55;;;;;;;1999.90;999.90;;;12.50;99.90;;;;;;6718850;77;20526;-78
2022/10/31 02:04:56;;;;;;;1999.90;999.90;;;12.40;99.90;;;;;;6729907;88;20207;-78
2022/10/31 02:14:58;;;;;;;1999.90;999.90;;;12.20;99.90;;;;;;6734590;88;20210;-78
2022/10/31 02:25:36;;;;;;;1999.90;999.90;;;12.40;99.90;;;;;;6730194;88;20184;-78
2022/10/31 02:36:13;;;;;;;1999.90;999.90;;;12.30;99.90;;;;;;6719355;88;20645;-78
2022/10/31 02:46:23;;;;;;;1999.90;999.90;;;12.30;99.90;;;;;;6719217;88;20214;-78
2022/10/31 02:56:23;;;;;;;1999.90;999.90;;;12.30;99.90;;;;;;6721236;88;20235;-79
2022/10/31 03:06:34;;;;;;;1999.90;999.90;;;12.10;99.90;;;;;;6717605;88;20260;-78
2022/10/31 03:16:50;;;;;;;1999.90;999.90;;;12.10;99.90;;;;;;6720414;88;20221;-78
2022/10/31 03:26:55;;;;;;;1999.90;999.90;;;12.10;99.90;;;;;;6736884;88;20268;-78
2022/10/31 03:36:58;;;;;;;1999.90;999.90;;;12.00;99.90;;;;;;6717842;88;20183;-80
2022/10/31 03:47:00;;;;;;;1999.90;999.90;;;12.20;99.90;;;;;;6719610;88;20197;-80
2022/10/31 03:57:23;;;;;;;1999.90;999.90;;;12.00;99.90;;;;;;6722478;88;20201;-80
2022/10/31 04:07:28;;;;;;;1999.90;999.90;;;11.90;99.90;;;;;;6719110;88;20197;-79
2022/10/31 04:17:32;;;;;;;1999.90;999.90;;;11.90;99.90;;;;;;6721831;88;20224;-79
2022/10/31 04:27:33;;;;;;;1999.90;999.90;;;11.80;99.90;;;;;;6721310;88;20316;-80
2022/10/31 04:37:33;;;;;;;1999.90;999.90;;;11.80;99.90;;;;;;6717704;88;20247;-80
2022/10/31 04:47:34;;;;;;;1999.90;999.90;;;11.70;99.90;;;;;;6719428;88;20322;-81
2022/10/31 04:57:45;;;;;;;1999.90;999.90;;;11.70;99.90;;;;;;6724185;88;20193;-80
2022/10/31 05:07:48;;;;;;;1999.90;999.90;;;11.60;99.90;;;;;;6721526;88;20194;-80
2022/10/31 05:17:48;;;;;;;1999.90;999.90;;;11.70;99.90;;;;;;6724581;88;20618;-79
2022/10/31 05:27:51;;;;;;;1999.90;999.90;;;11.70;99.90;;;;;;6719442;88;20184;-80
2022/10/31 05:37:51;;;;;;;1999.90;999.90;;;11.60;99.90;;;;;;6722456;88;20214;-80
2022/10/31 05:47:59;;;;;;;1999.90;999.90;;;11.60;99.90;;;;;;6723029;88;20210;-80
2022/10/31 05:57:59;;;;;;;1999.90;999.90;;;11.40;99.90;;;;;;6718305;88;20225;-78
2022/10/31 06:08:00;;;;;;;1999.90;999.90;;;11.30;99.90;;;;;;6725526;88;20204;-80
2022/10/31 06:18:03;;;;;;;1999.90;999.90;;;11.30;99.90;;;;;;6718810;88;20192;-78
2022/10/31 06:28:04;;;;;;;1999.90;999.90;;;11.30;99.90;;;;;;6723721;88;20247;-80
2022/10/31 06:38:04;;;;;;;1999.90;999.90;;;11.30;99.90;;;;;;6725514;88;20198;-81
2022/10/31 06:48:05;;;;;;;1999.90;999.90;;;11.30;99.90;;;;;;6732677;88;20326;-81
2022/10/31 06:58:05;;;;;;;1999.90;999.90;;;11.50;99.90;;;;;;6729830;88;20323;-81
2022/10/31 07:08:08;;;;;;;1999.90;999.90;;;11.50;99.90;;;;;;6731068;88;20223;-81
2022/10/31 07:18:10;;;;;;;1999.90;999.90;;;11.70;99.90;;;;;;6731895;88;20776;-84
2022/10/31 07:28:11;;;;;;;1999.90;999.90;;;11.80;99.90;;;;;;6730954;88;20339;-80
2022/10/31 07:38:13;;;;;;;1999.90;999.90;;;11.80;99.90;;;;;;6730528;88;20178;-80
2022/10/31 07:48:14;;;;;;;1999.90;999.90;;;12.10;99.90;;;;;;6730769;88;20185;-81
2022/10/31 07:58:16;;;;;;;1999.90;999.90;;;12.30;99.90;;;;;;6731394;88;20169;-81
2022/10/31 08:08:17;;;;;;;1999.90;999.90;;;12.60;99.90;;;;;;6727536;88;20734;-81
2022/10/31 08:18:17;;;;;;;1999.90;999.90;;;12.60;99.90;;;;;;6731905;88;20261;-81
2022/10/31 08:28:18;;;;;;;1999.90;999.90;;;12.90;99.90;;;;;;6729381;88;20166;-81
2022/10/31 08:38:19;;;;;;;1999.90;999.90;;;13.00;99.90;;;;;;6733196;88;20216;-82
2022/10/31 08:48:19;;;;;;;1999.90;999.90;;;13.20;99.90;;;;;;6732631;88;20185;-81
2022/10/31 08:58:20;;;;;;;1999.90;999.90;;;13.60;99.90;;;;;;6732285;88;20266;-80
2022/10/31 09:08:21;;;;;;;1999.90;999.90;;;13.70;99.90;;;;;;6728065;88;20185;-81
2022/10/31 09:18:23;;;;;;;1999.90;999.90;;;13.90;99.90;;;;;;6731262;88;20758;-81
2022/10/31 09:28:24;;;;;;;1999.90;999.90;;;14.20;99.90;;;;;;6726024;88;20571;-82
2022/10/31 09:38:24;;;;;;;1999.90;999.90;;;14.60;99.90;;;;;;6729521;88;20237;-80
2022/10/31 09:49:23;;;;;;;1999.90;999.90;;;15.30;99.90;;;;;;6727419;88;20203;-81
2022/10/31 09:59:33;;;;;;;1999.90;999.90;;;16.20;99.90;;;;;;6727492;88;20242;-81
2022/10/31 10:09:33;;;;;;;1999.90;999.90;;;16.40;99.90;;;;;;6730442;88;20516;-81
2022/10/31 10:19:52;;;;;;;1999.90;999.90;;;16.80;99.90;;;;;;6728064;88;20235;-81
2022/10/31 10:30:09;;;;;;;1999.90;999.90;;;16.50;99.90;;;;;;6728773;88;20634;-81
2022/10/31 10:40:17;;;;;;;1999.90;999.90;;;16.40;99.90;;;;;;6727698;88;20199;-81
2022/10/31 10:50:27;;;;;;;1999.90;999.90;;;16.70;99.90;;;;;;6727960;88;20288;-79
2022/10/31 11:00:31;;;;;;;1999.90;999.90;;;17.00;99.90;;;;;;6729144;88;20192;-80
2022/10/31 11:10:33;;;;;;;1999.90;999.90;;;17.40;99.90;;;;;;6728662;88;20210;-81
2022/10/31 11:20:36;;;;;;;1999.90;999.90;;;17.40;99.90;;;;;;6728215;88;20209;-78
2022/10/31 11:30:52;;;;;;;1999.90;999.90;;;17.50;99.90;;;;;;6728404;88;20225;-81
2022/10/31 11:40:59;;;;;;;1999.90;999.90;;;17.90;99.90;;;;;;6727302;88;20590;-80
2022/10/31 11:51:00;;;;;;;1999.90;999.90;;;18.10;99.90;;;;;;6740226;88;20995;-80
2022/10/31 12:01:00;;;;;;;1999.90;999.90;;;18.10;99.90;;;;;;6740710;88;20626;-80
2022/10/31 12:11:37;;;;;;;1999.90;999.90;;;18.20;99.90;;;;;;6740675;88;20714;-80
2022/10/31 12:21:49;;;;;;;1999.90;999.90;;;18.30;99.90;;;;;;6744005;88;20213;-80
2022/10/31 12:32:19;;;;;;;1999.90;999.90;;;18.30;99.90;;;;;;6741702;88;20170;-81
2022/10/31 12:42:38;;;;;;;1999.90;999.90;;;18.20;99.90;;;;;;6726858;88;20566;-80
2022/10/31 12:52:57;;;;;;;1999.90;999.90;;;18.20;99.90;;;;;;6725992;88;20211;-81
2022/10/31 13:03:14;;;;;;;1999.90;999.90;;;18.30;99.90;;;;;;6744858;88;20182;-82
2022/10/31 13:13:23;;;;;;;1999.90;999.90;;;18.20;99.90;;;;;;6746767;88;20256;-82
2022/10/31 13:23:32;;;;;;;1999.90;999.90;;;18.40;99.90;;;;;;6745141;88;21051;-80
2022/10/31 13:33:39;;;;;;;1999.90;999.90;;;18.40;99.90;;;;;;6733292;88;20182;-81
2022/10/31 13:44:04;;;;;;;1999.90;999.90;;;18.60;99.90;;;;;;6719630;88;20699;-81
2022/10/31 13:54:33;;;;;;;1999.90;999.90;;;18.50;99.90;;;;;;6731471;77;20752;-79
2022/10/31 14:04:44;;;;;;;1999.90;999.90;;;18.20;99.90;;;;;;6779187;87;20169;-81
2022/10/31 14:14:49;;;;;;;1999.90;999.90;;;18.20;99.90;;;;;;6775897;87;20234;-81
2022/10/31 14:24:50;;;;;;;1999.90;999.90;;;18.20;99.90;;;;;;6778286;87;20182;-80
2022/10/31 14:34:50;;;;;;;1999.90;999.90;;;18.20;99.90;;;;;;6775003;88;20168;-79
2022/10/31 14:45:16;;;;;;;1999.90;999.90;;;18.10;99.90;;;;;;6754720;87;20662;-78
2022/10/31 14:55:18;;;;;;;1999.90;999.90;;;18.10;99.90;;;;;;6776258;87;20324;-81
2022/10/31 15:05:19;;;;;;;1999.90;999.90;;;18.00;99.90;;;;;;6778603;87;20175;-81
2022/10/31 15:15:23;;;;;;;1999.90;999.90;;;18.10;99.90;;;;;;6775740;87;20541;-79
2022/10/31 15:25:27;;;;;;;1999.90;999.90;;;18.20;99.90;;;;;;6776251;87;20188;-79
2022/10/31 15:35:30;;;;;;;1999.90;999.90;;;18.20;99.90;;;;;;6763235;87;20219;-79
2022/10/31 15:45:31;;;;;;;1999.90;999.90;;;18.20;99.90;;;;;;6777227;87;20281;-78
2022/10/31 15:55:38;;;;;;;1999.90;999.90;;;18.00;99.90;;;;;;6778038;87;20284;-80
2022/10/31 16:05:43;;;;;;;1999.90;999.90;;;17.80;99.90;;;;;;6746165;88;20177;-80
2022/10/31 16:15:54;;;;;;;1999.90;999.90;;;17.60;99.90;;;;;;6757035;88;20180;-80
2022/10/31 16:25:54;;;;;;;1999.90;999.90;;;17.40;99.90;;;;;;6747224;88;20217;-79
2022/10/31 16:35:57;;;;;;;1999.90;999.90;;;17.40;99.90;;;;;;6765138;88;20674;-80
2022/10/31 16:45:57;;;;;;;1999.90;999.90;;;17.40;99.90;;;;;;6777283;87;21032;-79
2022/10/31 16:56:01;;;;;;;1999.90;999.90;;;17.30;99.90;;;;;;6762182;88;20250;-79
2022/10/31 17:06:01;;;;;;;1999.90;999.90;;;17.20;99.90;;;;;;6761937;88;20206;-80
2022/10/31 17:16:02;;;;;;;1999.90;999.90;;;17.10;99.90;;;;;;6762561;87;20720;-79
2022/10/31 17:26:05;;;;;;;1999.90;999.90;;;17.00;99.90;;;;;;6788767;87;20362;-79
2022/10/31 17:36:06;;;;;;;1999.90;999.90;;;16.90;99.90;;;;;;6782863;87;20184;-77
2022/10/31 17:46:07;;;;;;;1999.90;999.90;;;16.80;99.90;;;;;;6760041;87;20284;-79
2022/10/31 17:56:09;;;;;;;1999.90;999.90;;;16.70;99.90;;;;;;6787358;87;20279;-80
2022/10/31 18:06:10;;;;;;;1999.90;999.90;;;16.50;99.90;;;;;;6783235;87;20297;-79
2022/10/31 18:16:17;;;;;;;1999.90;999.90;;;16.40;99.90;;;;;;6795711;87;20178;-82
2022/10/31 18:26:18;;;;;;;1999.90;999.90;;;16.30;99.90;;;;;;6799747;87;20658;-82
2022/10/31 18:46:42;;;;;;;1999.90;999.90;;;16.30;99.90;;;;;;6802446;77;20187;-83
2022/10/31 18:57:24;;;;;;;1999.90;999.90;;;16.30;99.90;;;;;;6799229;77;20294;-85
2022/10/31 19:07:24;;;;;;;1999.90;999.90;;;16.30;99.90;;;;;;6736456;88;20188;-83
2022/10/31 19:28:30;;;;;;;1999.90;999.90;;;16.20;99.90;;;;;;6757261;88;20181;-79
2022/10/31 19:48:56;;;;;;;1999.90;999.90;;;16.10;99.90;;;;;;6833819;78;20174;-81
2022/10/31 19:59:37;;;;;;;1999.90;999.90;;;16.10;99.90;;;;;;6788552;77;20280;-80
2022/10/31 20:09:38;;;;;;;1999.90;999.90;;;16.00;99.90;;;;;;6655176;88;20207;-79
2022/10/31 20:19:38;;;;;;;1999.90;999.90;;;15.90;99.90;;;;;;6640294;89;20652;-80
2022/10/31 20:29:39;;;;;;;1999.90;999.90;;;15.70;99.90;;;;;;6637688;89;20231;-80
2022/10/31 20:39:39;;;;;;;1999.90;999.90;;;15.60;99.90;;;;;;6637625;89;20241;-80
2022/10/31 20:49:40;;;;;;;1999.90;999.90;;;15.50;99.90;;;;;;6636996;89;20332;-81
2022/10/31 20:59:40;;;;;;;1999.90;999.90;;;15.50;99.90;;;;;;6637785;89;20189;-80
2022/10/31 21:09:41;;;;;;;1999.90;999.90;;;15.50;99.90;;;;;;6638015;89;20185;-79
2022/10/31 21:19:41;;;;;;;1999.90;999.90;;;15.60;99.90;;;;;;6640435;89;20176;-79
2022/10/31 21:29:42;;;;;;;1999.90;999.90;;;15.60;99.90;;;;;;6642770;89;20200;-79
2022/10/31 21:39:42;;;;;;;1999.90;999.90;;;15.70;99.90;;;;;;6643058;89;20737;-79
2022/10/31 21:49:43;;;;;;;1999.90;999.90;;;15.70;99.90;;;;;;6639144;89;20220;-79
2022/10/31 21:59:47;;;;;;;1999.90;999.90;;;15.80;99.90;;;;;;6637612;89;20209;-79
2022/10/31 22:09:48;;;;;;;1999.90;999.90;;;15.80;99.90;;;;;;6639779;89;20202;-79
2022/10/31 22:19:48;;;;;;;1999.90;999.90;;;15.90;99.90;;;;;;6642718;89;20251;-81
2022/10/31 22:29:49;;;;;;;1999.90;999.90;;;15.90;99.90;;;;;;6640895;89;20230;-79
2022/10/31 22:39:49;;;;;;;1999.90;999.90;;;15.90;99.90;;;;;;6639619;89;20206;-81
2022/10/31 22:49:50;;;;;;;1999.90;999.90;;;16.00;99.90;;;;;;6639434;89;20254;-81
2022/10/31 22:59:50;;;;;;;1999.90;999.90;;;16.10;99.90;;;;;;6638978;89;20200;-80
2022/10/31 23:09:51;;;;;;;1999.90;999.90;;;16.10;99.90;;;;;;6638545;89;20204;-80
2022/10/31 23:19:51;;;;;;;1999.90;999.90;;;16.20;99.90;;;;;;6638818;89;20323;-80
2022/10/31 23:29:55;;;;;;;1999.90;999.90;;;16.30;99.90;;;;;;6639377;89;20194;-79
2022/10/31 23:39:56;;;;;;;1999.90;999.90;;;16.30;99.90;;;;;;6639003;89;21104;-80
2022/10/31 23:49:57;;;;;;;1999.90;999.90;;;16.20;99.90;;;;;;6638334;89;20326;-81
2022/10/31 23:59:57;;;;;;;1999.90;999.90;;;16.20;99.90;;;;;;6638653;89;20203;-80
